KSLB/SLB METAR and TAF weather

Enter ICAO airport designator
Station Type Date Time Source
KSLB METAR 2019/04/24 16:35 UTC NOAA

KSLB 241635Z AUTO 23010G15KT 10SM CLR 18/04 A2986 RMK AO2


Station Type Date Time Source
KSLB Decoded METAR 2019/04/24 16:35 UTC NOAA

Storm Lake, IA, United States (KSLB) 42-36N 095-14W
Apr 24, 2019 - 12:35 PM EDT / 2019.04.24 1635 UTC
Wind: from the SW (230 degrees) at 12 MPH (10 KT) gusting to 17 MPH (15 KT):0
Visibility: 10 mile(s):0
Sky conditions: clear
Temperature: 64 F (18 C)
Dew Point: 39 F (4 C)
Relative Humidity: 39%
Pressure (altimeter): 29.86 in. Hg (1011 hPa)
ob: KSLB 241635Z AUTO 23010G15KT 10SM CLR 18/04 A2986 RMK AO2
cycle: 16

Station Type Date Time Source
KSLB TAF UTC NOAA

Error!

Example: see airport list